Elgin, IL (60120)

11:38 AM CDT on September 20, 2019 (GMT -0500)
Country Trails | | Change Station
Active Advisory: Flood Warning

Elev 801 ft 42.04 °N, 88.23 °W | Updated 11 seconds ago

Partly Cloudy
Partly Cloudy
78.3 °F
Feels Like 80 °F
N
0
Wind Variable Wind from East
Gusts 0.0 mph

Today
High -- | Low -- °F
--% Chance of Precip.
Yesterday
High -- | Low -- °F
Precip. -- in
Pressure 30.12 in
Visibility 10.0 miles
Clouds Clear
Heat Index 80 °F
Dew Point 67 °F
Humidity 69%
Rainfall 0.00 in
Snow Depth Not available.
6:38 AM 6:54 PM
Waning Gibbous, 65% visible
METAR KDPA 201552Z 21005KT 10SM CLR 25/19 A3013 RMK AO2 SLP199 T02500189
Pressure 30.12 in
Visibility 10.0 miles
Clouds Clear
Heat Index 80 °F
Dew Point 67 °F
Humidity 69%
Rainfall 0.00 in
Snow Depth Not available.
6:38 AM 6:54 PM
Waning Gibbous, 65% visible
METAR KDPA 201552Z 21005KT 10SM CLR 25/19 A3013 RMK AO2 SLP199 T02500189

Get Your Daily Forecast Email!

Thanks for signing up!

Be on the lookout for a verification email in your inbox.

You'll start receiving severe weather alerts in your inbox..

×

10-Day Weather Forecast

Almanac

Astronomy

Sep. 20, 2019 Rise Set
Actual Time
Civil Twilight
Nautical Twilight
Astronomical Twilight
Moon
Length of Visible Light
Length of Day
Tomorrow will be .
, % of the Moon is Illuminated

Today's Extremes

State Highs State Lows

Community

WunderPhotos

Category 6

Welcome to Category 6. This is the collective home for Weather Underground's featured writeups by Dr. Jeff Masters (right), Bob Henson (left), Chris Burt, and other regular contributors.

Nearby

Air Quality

  Air Quality AQ Index Pollutant
Not available.

Snow Depth

Station Depth Elevation

Earthquake Activity

City Distance Mag. Time & Date
Minimum magnitude displayed is 2.5.

Coastal Water Temperatures

Place Temperature

Stations

Nearby Weather Stations

Station Location Temp. Windchill Dew Point Humidity Wind Precip. Elev Updated Type
                   

Watches & Warnings

Flood Warning
Issued: 8:51 AM CDT Sep. 20, 2019 – National Weather Service

The Flood Warning continues for
the Des Plaines river near Des Plaines, or from Palatine Road in
Prospect Heights downstream to Irving Park Road in Chicago.
* Until Saturday evening.
* At 845 am Friday the stage was 15.8 feet.
* Flood stage is 15.0 feet.
* Minor flooding is occurring and minor flooding is forecast.
* Forecast... the river will continue to fall to below flood stage by
Saturday afternoon.
* Impact... at 15.0 feet... buildings threatened at Methodist campground
in Des Plaines. Forest preserve roadways are threatened.


Lat... Lon 4212 8794 4212 8784 4197 8780 4196 8790